Time;durP1;ratioP1;P1;durP2;ratioP2;P2;SDS_P1;SDS_P2;PMS_P1;PMS_P2;Temp;Humidity;BMP_temperature;BMP_pressure;BME280_temperature;BME280_humidity;BME280_pressure;Samples;Min_cycle;Max_cycle;Signal;HPM_P1;HPM_P2
2023/04/03 00:00:58;;;;;;;;;;;20.30;36.30;;;;;;8333209;28;20008;-45
2023/04/03 00:04:59;;;;;;;;;;;20.30;36.30;;;;;;8333201;28;19921;-44
2023/04/03 00:09:00;;;;;;;;;;;20.30;36.20;;;;;;8332380;28;20331;-44
2023/04/03 00:13:00;;;;;;;;;;;20.30;36.30;;;;;;8333166;28;19993;-45
2023/04/03 00:17:00;;;;;;;;;;;20.30;36.30;;;;;;8333012;28;19920;-46
2023/04/03 00:21:01;;;;;;;;;;;20.30;36.20;;;;;;8332039;28;19952;-45
2023/04/03 00:25:02;;;;;;;;;;;20.30;36.20;;;;;;8332653;28;19924;-45
2023/04/03 00:29:02;;;;;;;;;;;20.20;36.20;;;;;;8332199;28;19925;-45
2023/04/03 00:33:03;;;;;;;;;;;20.20;36.20;;;;;;8331981;28;19917;-45
2023/04/03 00:37:03;;;;;;;;;;;20.20;36.10;;;;;;8332308;28;20445;-45
2023/04/03 00:41:04;;;;;;;;;;;20.20;36.20;;;;;;8332080;28;19917;-45
2023/04/03 00:45:04;;;;;;;;;;;20.20;36.20;;;;;;8331379;28;20004;-45
2023/04/03 00:49:05;;;;;;;;;;;20.20;36.30;;;;;;8331637;28;20019;-45
2023/04/03 00:53:06;;;;;;;;;;;20.20;36.10;;;;;;8331773;28;19917;-45
2023/04/03 00:57:07;;;;;;;;;;;20.20;36.10;;;;;;8330777;28;19952;-44
2023/04/03 01:01:10;;;;;;;;;;;20.20;36.10;;;;;;8331337;28;19921;-44
2023/04/03 01:05:11;;;;;;;;;;;20.20;36.10;;;;;;8330353;28;19925;-44
2023/04/03 01:09:12;;;;;;;;;;;20.20;36.10;;;;;;8325318;28;19925;-44
2023/04/03 01:13:40;;;;;;;;;;;20.10;36.00;;;;;;8330983;28;19917;-45
2023/04/03 01:17:41;;;;;;;;;;;20.10;36.00;;;;;;8327306;28;19920;-44
2023/04/03 01:21:51;;;;;;;;;;;20.10;36.00;;;;;;8331068;28;20111;-44
2023/04/03 01:25:53;;;;;;;;;;;20.10;36.00;;;;;;8330781;28;19917;-44
2023/04/03 01:29:53;;;;;;;;;;;20.10;36.10;;;;;;8329794;28;19929;-43
2023/04/03 01:33:54;;;;;;;;;;;20.10;36.00;;;;;;8330529;28;19921;-45
2023/04/03 01:37:55;;;;;;;;;;;20.00;35.90;;;;;;8330617;28;20389;-44
2023/04/03 01:41:55;;;;;;;;;;;20.10;36.00;;;;;;8330166;28;19914;-44
2023/04/03 01:45:56;;;;;;;;;;;20.00;36.40;;;;;;8330106;28;20004;-44
2023/04/03 01:49:56;;;;;;;;;;;20.00;35.90;;;;;;8330179;28;19924;-44
2023/04/03 01:53:57;;;;;;;;;;;20.00;35.90;;;;;;8329725;28;20327;-45
2023/04/03 01:57:57;;;;;;;;;;;20.00;35.90;;;;;;8330662;28;19925;-44
2023/04/03 02:01:57;;;;;;;;;;;20.00;35.80;;;;;;8330105;28;20011;-43
2023/04/03 02:05:58;;;;;;;;;;;20.00;35.80;;;;;;8329475;28;19972;-44
2023/04/03 02:09:58;;;;;;;;;;;19.90;35.80;;;;;;8335040;28;19918;-44
2023/04/03 02:13:59;;;;;;;;;;;19.90;35.70;;;;;;8336600;28;19924;-45
2023/04/03 02:17:59;;;;;;;;;;;19.90;35.80;;;;;;8335966;28;20390;-44
2023/04/03 02:22:00;;;;;;;;;;;20.00;35.90;;;;;;8336495;28;19918;-44
2023/04/03 02:26:11;;;;;;;;;;;20.00;35.80;;;;;;8335968;28;20012;-44
2023/04/03 02:30:12;;;;;;;;;;;20.00;35.80;;;;;;8335746;28;19999;-44
2023/04/03 02:34:13;;;;;;;;;;;19.90;35.70;;;;;;8335742;28;19956;-44
2023/04/03 02:38:13;;;;;;;;;;;19.90;35.70;;;;;;8335566;28;20337;-44
2023/04/03 02:42:14;;;;;;;;;;;19.90;35.70;;;;;;8335607;28;19923;-44
2023/04/03 02:46:15;;;;;;;;;;;19.90;35.70;;;;;;8335518;28;19925;-44
2023/04/03 02:50:15;;;;;;;;;;;19.80;35.70;;;;;;8334854;28;20397;-46
2023/04/03 02:54:16;;;;;;;;;;;19.90;35.80;;;;;;8335475;28;19917;-44
2023/04/03 02:58:16;;;;;;;;;;;19.90;35.70;;;;;;8335586;28;20043;-44
2023/04/03 03:02:17;;;;;;;;;;;19.80;35.70;;;;;;8334678;28;20045;-45
2023/04/03 03:06:17;;;;;;;;;;;19.80;35.60;;;;;;8335157;28;20157;-45
2023/04/03 03:10:18;;;;;;;;;;;19.80;35.60;;;;;;8334836;28;20358;-44
2023/04/03 03:14:18;;;;;;;;;;;19.80;35.60;;;;;;8334120;28;20370;-44
2023/04/03 03:18:19;;;;;;;;;;;19.80;35.70;;;;;;8334744;28;20289;-43
2023/04/03 03:22:19;;;;;;;;;;;19.80;35.70;;;;;;8334356;28;19924;-44
2023/04/03 03:26:20;;;;;;;;;;;19.80;35.60;;;;;;8333361;28;20329;-44
2023/04/03 03:30:20;;;;;;;;;;;19.80;35.60;;;;;;8334033;28;19924;-43
2023/04/03 03:34:21;;;;;;;;;;;19.80;35.70;;;;;;8334409;28;19925;-44
2023/04/03 03:38:21;;;;;;;;;;;19.80;35.60;;;;;;8333734;28;19924;-44
2023/04/03 03:42:22;;;;;;;;;;;19.80;35.60;;;;;;8333807;28;19971;-44
2023/04/03 03:46:22;;;;;;;;;;;19.80;35.70;;;;;;8333706;28;20020;-44
2023/04/03 03:50:23;;;;;;;;;;;19.80;35.60;;;;;;8333132;28;19917;-45
2023/04/03 03:54:23;;;;;;;;;;;19.80;35.60;;;;;;8333326;28;20354;-44
2023/04/03 03:58:24;;;;;;;;;;;19.80;35.60;;;;;;8333614;28;19948;-45
2023/04/03 04:02:24;;;;;;;;;;;19.80;35.50;;;;;;8321440;28;19986;-45
2023/04/03 04:06:25;;;;;;;;;;;19.80;35.50;;;;;;8320911;28;19925;-45
2023/04/03 04:10:26;;;;;;;;;;;19.80;35.60;;;;;;8333042;28;19996;-45
2023/04/03 04:14:26;;;;;;;;;;;19.90;35.50;;;;;;8332260;28;19917;-44
2023/04/03 04:18:27;;;;;;;;;;;20.00;35.40;;;;;;8332994;28;19914;-44
2023/04/03 04:22:27;;;;;;;;;;;20.10;35.40;;;;;;8332735;28;19921;-44
2023/04/03 04:26:28;;;;;;;;;;;20.20;35.40;;;;;;8331690;28;19937;-45
2023/04/03 04:30:28;;;;;;;;;;;20.20;35.30;;;;;;8331494;28;19917;-45
2023/04/03 04:34:29;;;;;;;;;;;20.30;35.30;;;;;;8332167;28;20019;-45
2023/04/03 04:38:30;;;;;;;;;;;20.40;35.30;;;;;;8331883;28;19913;-45
2023/04/03 04:42:30;;;;;;;;;;;20.50;35.20;;;;;;8332026;28;19924;-49
2023/04/03 04:46:31;;;;;;;;;;;20.50;35.20;;;;;;8331782;28;19925;-45
2023/04/03 04:50:31;;;;;;;;;;;20.60;35.10;;;;;;8331089;28;20393;-45
2023/04/03 04:54:32;;;;;;;;;;;20.60;35.10;;;;;;8331405;28;19932;-44
2023/04/03 04:58:32;;;;;;;;;;;20.60;35.10;;;;;;8331816;28;19913;-45
2023/04/03 05:02:33;;;;;;;;;;;20.60;35.10;;;;;;8330969;28;19928;-45
2023/04/03 05:06:34;;;;;;;;;;;20.60;35.10;;;;;;8331086;28;20317;-45
2023/04/03 05:10:35;;;;;;;;;;;20.60;35.10;;;;;;8331111;28;19920;-45
2023/04/03 05:14:35;;;;;;;;;;;20.60;35.00;;;;;;8330441;28;19917;-43
2023/04/03 05:18:36;;;;;;;;;;;20.60;35.00;;;;;;8330917;28;20374;-44
2023/04/03 05:22:36;;;;;;;;;;;20.50;35.00;;;;;;8330796;28;20291;-43
2023/04/03 05:26:37;;;;;;;;;;;20.50;35.10;;;;;;8330077;28;20302;-44
2023/04/03 05:30:37;;;;;;;;;;;20.50;35.10;;;;;;8330540;28;20382;-43
2023/04/03 05:34:38;;;;;;;;;;;20.40;35.00;;;;;;8330544;28;19921;-43
2023/04/03 05:38:38;;;;;;;;;;;20.40;34.90;;;;;;8330017;28;20370;-44
2023/04/03 05:42:39;;;;;;;;;;;20.40;34.90;;;;;;8330440;28;19992;-43
2023/04/03 05:46:39;;;;;;;;;;;20.30;34.80;;;;;;8330130;28;19927;-42
2023/04/03 05:50:42;;;;;;;;;;;20.30;34.90;;;;;;8329444;28;20320;-44
2023/04/03 05:54:42;;;;;;;;;;;20.30;34.90;;;;;;8330073;28;20354;-43
2023/04/03 05:58:43;;;;;;;;;;;20.30;34.80;;;;;;8330038;28;19921;-43
2023/04/03 06:02:43;;;;;;;;;;;20.30;34.80;;;;;;8329295;28;20336;-43
2023/04/03 06:06:45;;;;;;;;;;;20.30;34.90;;;;;;8329879;28;20004;-44
2023/04/03 06:10:45;;;;;;;;;;;20.30;34.80;;;;;;8329680;28;19959;-44
2023/04/03 06:14:46;;;;;;;;;;;20.30;34.90;;;;;;8329070;28;19917;-44
2023/04/03 06:18:46;;;;;;;;;;;20.30;35.00;;;;;;8330143;28;20351;-45
2023/04/03 06:22:47;;;;;;;;;;;20.40;35.10;;;;;;8329596;28;19917;-44
2023/04/03 06:26:48;;;;;;;;;;;20.50;34.90;;;;;;8329024;28;19925;-43
2023/04/03 06:30:49;;;;;;;;;;;20.50;34.80;;;;;;8329355;28;19917;-45
2023/04/03 06:34:50;;;;;;;;;;;20.60;34.80;;;;;;8329534;28;19976;-43
2023/04/03 06:38:51;;;;;;;;;;;20.60;34.70;;;;;;8328890;28;20362;-44
2023/04/03 06:42:51;;;;;;;;;;;20.60;34.60;;;;;;8329564;28;20000;-44
2023/04/03 06:46:53;;;;;;;;;;;20.60;34.60;;;;;;8328956;28;19922;-44
2023/04/03 06:50:54;;;;;;;;;;;20.70;34.60;;;;;;8328494;28;19921;-44
2023/04/03 06:54:57;;;;;;;;;;;20.60;34.60;;;;;;8332158;28;20370;-44
2023/04/03 06:58:58;;;;;;;;;;;20.60;34.70;;;;;;8334959;28;19917;-44
2023/04/03 07:02:58;;;;;;;;;;;20.60;34.60;;;;;;8334455;28;20337;-44
2023/04/03 07:06:59;;;;;;;;;;;20.60;34.60;;;;;;8333670;28;19961;-44
2023/04/03 07:11:00;;;;;;;;;;;20.60;34.60;;;;;;8334812;28;19913;-43
2023/04/03 07:15:00;;;;;;;;;;;20.60;34.50;;;;;;8334099;28;19927;-43
2023/04/03 07:19:02;;;;;;;;;;;20.50;34.40;;;;;;8334555;28;19917;-43
2023/04/03 07:23:03;;;;;;;;;;;20.50;34.40;;;;;;8334189;28;20366;-43
2023/04/03 07:27:03;;;;;;;;;;;20.50;34.20;;;;;;8333267;28;19975;-45
2023/04/03 07:31:07;;;;;;;;;;;20.50;34.20;;;;;;8334003;28;19913;-42
2023/04/03 07:35:08;;;;;;;;;;;20.50;34.20;;;;;;8334099;28;19917;-44
2023/04/03 07:39:09;;;;;;;;;;;20.40;34.20;;;;;;8333096;28;19943;-45
2023/04/03 07:43:09;;;;;;;;;;;20.40;34.30;;;;;;8334716;28;20346;-44
2023/04/03 07:47:10;;;;;;;;;;;20.40;34.10;;;;;;8334249;28;19922;-43
2023/04/03 07:51:10;;;;;;;;;;;20.40;34.00;;;;;;8334337;28;20267;-44
2023/04/03 07:55:11;;;;;;;;;;;20.40;33.90;;;;;;8334729;28;19963;-44
2023/04/03 07:59:11;;;;;;;;;;;20.40;34.00;;;;;;8326835;28;20032;-44
2023/04/03 08:03:12;;;;;;;;;;;20.40;34.10;;;;;;8322928;28;19940;-44
2023/04/03 08:07:12;;;;;;;;;;;20.40;34.00;;;;;;8321745;28;20337;-44
2023/04/03 08:11:13;;;;;;;;;;;20.30;34.00;;;;;;8330470;28;19964;-45
2023/04/03 08:15:13;;;;;;;;;;;20.30;34.00;;;;;;8328412;28;19924;-43
2023/04/03 08:19:15;;;;;;;;;;;20.30;33.90;;;;;;8314481;28;19952;-45
2023/04/03 08:23:16;;;;;;;;;;;20.30;34.00;;;;;;8328411;28;19987;-43
2023/04/03 08:27:17;;;;;;;;;;;20.30;33.90;;;;;;8331956;28;19925;-44
2023/04/03 08:31:18;;;;;;;;;;;20.30;33.90;;;;;;8323098;28;20008;-44
2023/04/03 08:35:20;;;;;;;;;;;20.30;33.80;;;;;;8311951;28;19925;-43
2023/04/03 08:39:21;;;;;;;;;;;20.30;33.80;;;;;;8307167;28;20370;-44
2023/04/03 08:43:47;;;;;;;;;;;20.30;33.80;;;;;;8310719;28;19925;-43
2023/04/03 08:47:51;;;;;;;;;;;20.30;33.70;;;;;;8307277;28;19925;-44
2023/04/03 08:51:52;;;;;;;;;;;20.20;33.70;;;;;;8329953;28;19921;-43
2023/04/03 08:55:53;;;;;;;;;;;20.20;33.70;;;;;;8328959;28;19918;-43
2023/04/03 08:59:54;;;;;;;;;;;20.20;33.90;;;;;;8328954;28;20004;-42
2023/04/03 09:03:54;;;;;;;;;;;20.20;33.80;;;;;;8331014;28;19925;-44
2023/04/03 09:08:01;;;;;;;;;;;20.20;33.70;;;;;;8330771;28;20517;-43
2023/04/03 09:12:10;;;;;;;;;;;20.20;33.70;;;;;;8313429;28;19979;-44
2023/04/03 09:16:16;;;;;;;;;;;20.20;33.70;;;;;;8301330;28;20034;-44
2023/04/03 09:20:21;;;;;;;;;;;20.20;33.80;;;;;;8318929;28;20401;-44
2023/04/03 09:24:22;;;;;;;;;;;20.20;33.70;;;;;;8324346;28;19939;-44
2023/04/03 09:28:23;;;;;;;;;;;20.20;33.80;;;;;;8329369;28;19936;-44
2023/04/03 09:32:34;;;;;;;;;;;20.20;33.70;;;;;;8314046;28;20325;-43
2023/04/03 09:36:38;;;;;;;;;;;20.20;33.80;;;;;;8324820;28;19963;-44
2023/04/03 09:40:40;;;;;;;;;;;20.20;33.80;;;;;;8321486;28;20052;-44
2023/04/03 09:44:40;;;;;;;;;;;20.20;33.90;;;;;;8310179;28;20004;-44
2023/04/03 09:48:49;;;;;;;;;;;20.20;33.90;;;;;;8329998;28;20213;-44
2023/04/03 09:52:51;;;;;;;;;;;20.20;33.80;;;;;;8333766;28;19917;-45
2023/04/03 09:56:53;;;;;;;;;;;20.20;33.70;;;;;;8329727;28;19917;-44
2023/04/03 10:00:54;;;;;;;;;;;20.20;33.80;;;;;;8330083;28;19920;-43
2023/04/03 10:04:55;;;;;;;;;;;20.20;33.80;;;;;;8329847;28;19925;-44
2023/04/03 10:09:00;;;;;;;;;;;20.10;33.70;;;;;;8327046;28;19925;-43
2023/04/03 10:13:05;;;;;;;;;;;20.10;33.70;;;;;;8310396;28;19967;-43
2023/04/03 10:17:22;;;;;;;;;;;20.10;33.70;;;;;;8329712;28;20332;-45
2023/04/03 10:21:43;;;;;;;;;;;20.20;33.80;;;;;;8329912;28;19940;-43
2023/04/03 10:25:50;;;;;;;;;;;20.10;33.80;;;;;;8329123;28;19917;-44
2023/04/03 10:29:54;;;;;;;;;;;20.10;33.70;;;;;;8332127;28;19929;-44
2023/04/03 10:34:04;;;;;;;;;;;20.10;33.50;;;;;;8336093;28;19921;-43
2023/04/03 10:38:24;;;;;;;;;;;20.10;33.70;;;;;;8335841;28;20059;-43
2023/04/03 10:42:27;;;;;;;;;;;20.10;33.70;;;;;;8335599;28;19921;-44
2023/04/03 10:46:46;;;;;;;;;;;20.10;33.60;;;;;;8335430;28;19917;-45
2023/04/03 10:51:00;;;;;;;;;;;20.10;33.70;;;;;;8302251;28;20055;-44
2023/04/03 10:55:05;;;;;;;;;;;20.10;33.80;;;;;;8330330;28;20353;-44
2023/04/03 10:59:18;;;;;;;;;;;20.10;33.80;;;;;;8335033;28;19914;-44
2023/04/03 11:03:26;;;;;;;;;;;20.10;33.70;;;;;;8334897;28;20124;-43
2023/04/03 11:07:30;;;;;;;;;;;20.10;33.70;;;;;;8334595;28;19921;-43
2023/04/03 11:11:32;;;;;;;;;;;20.10;33.70;;;;;;8334338;28;20333;-43
2023/04/03 11:15:33;;;;;;;;;;;20.10;33.80;;;;;;8334545;28;19917;-45
2023/04/03 11:19:39;;;;;;;;;;;20.10;33.80;;;;;;8334239;28;20328;-43
2023/04/03 11:23:39;;;;;;;;;;;20.10;33.70;;;;;;8333801;28;20386;-45
2023/04/03 11:27:43;;;;;;;;;;;20.10;33.70;;;;;;8334307;28;19993;-44
2023/04/03 11:31:58;;;;;;;;;;;20.00;33.70;;;;;;8334311;28;19949;-44
2023/04/03 11:36:01;;;;;;;;;;;20.00;33.70;;;;;;8333704;28;19956;-43
2023/04/03 11:40:03;;;;;;;;;;;20.00;33.70;;;;;;8333515;28;19971;-44
2023/04/03 11:44:06;;;;;;;;;;;20.00;33.70;;;;;;8333842;28;19932;-43
2023/04/03 11:48:06;;;;;;;;;;;20.00;33.80;;;;;;8333073;28;19954;-44
2023/04/03 11:52:26;;;;;;;;;;;20.00;33.80;;;;;;8333836;28;20318;-44
2023/04/03 11:56:29;;;;;;;;;;;20.00;33.70;;;;;;8333402;28;19921;-43
2023/04/03 12:00:51;;;;;;;;;;;20.00;33.80;;;;;;8333791;28;19917;-43
2023/04/03 12:05:11;;;;;;;;;;;20.00;33.70;;;;;;8333326;28;19928;-43
2023/04/03 12:09:30;;;;;;;;;;;20.00;33.70;;;;;;8332989;28;20302;-43
2023/04/03 12:13:31;;;;;;;;;;;20.00;33.70;;;;;;8332728;28;19982;-43
2023/04/03 12:17:31;;;;;;;;;;;20.00;33.70;;;;;;8332003;28;20263;-43
2023/04/03 12:21:51;;;;;;;;;;;20.00;33.70;;;;;;8333220;28;20466;-44
2023/04/03 12:25:58;;;;;;;;;;;20.00;33.80;;;;;;8332740;28;19917;-44
2023/04/03 12:30:20;;;;;;;;;;;20.00;33.70;;;;;;8331943;28;20012;-43
2023/04/03 12:34:39;;;;;;;;;;;20.00;33.60;;;;;;8332264;28;20321;-44
2023/04/03 12:39:03;;;;;;;;;;;20.00;33.70;;;;;;8331610;28;19924;-43
2023/04/03 12:43:07;;;;;;;;;;;20.00;33.70;;;;;;8332523;28;19925;-44
2023/04/03 12:47:19;;;;;;;;;;;20.00;33.80;;;;;;8332072;28;19975;-45
2023/04/03 12:51:29;;;;;;;;;;;20.00;33.70;;;;;;8330888;28;19917;-43
2023/04/03 12:55:29;;;;;;;;;;;20.00;33.70;;;;;;8331643;28;20306;-44
2023/04/03 12:59:30;;;;;;;;;;;20.00;33.70;;;;;;8330973;28;20008;-43
2023/04/03 13:03:31;;;;;;;;;;;20.00;33.70;;;;;;8331468;28;19921;-43
2023/04/03 13:07:33;;;;;;;;;;;20.00;33.80;;;;;;8331295;28;20384;-43
2023/04/03 13:11:40;;;;;;;;;;;20.00;33.80;;;;;;8329831;28;19913;-44
2023/04/03 13:15:42;;;;;;;;;;;20.00;33.80;;;;;;8330953;28;20400;-44
2023/04/03 13:19:45;;;;;;;;;;;20.00;33.80;;;;;;8330620;28;20016;-44
2023/04/03 13:23:48;;;;;;;;;;;20.00;33.80;;;;;;8330560;28;19917;-43
2023/04/03 13:27:49;;;;;;;;;;;20.00;33.80;;;;;;8330873;28;20378;-44
2023/04/03 13:31:52;;;;;;;;;;;20.00;33.80;;;;;;8330650;28;20374;-43
2023/04/03 13:36:07;;;;;;;;;;;20.00;33.80;;;;;;8329827;28;20240;-44
2023/04/03 13:40:07;;;;;;;;;;;20.00;33.70;;;;;;8330458;28;20447;-45
2023/04/03 13:44:23;;;;;;;;;;;20.00;33.70;;;;;;8330346;28;19917;-44
2023/04/03 13:48:23;;;;;;;;;;;20.00;33.80;;;;;;8329200;28;20025;-43
2023/04/03 13:52:29;;;;;;;;;;;20.00;33.70;;;;;;8329748;28;20398;-43
2023/04/03 13:56:37;;;;;;;;;;;20.00;33.80;;;;;;8328822;28;20271;-44
2023/04/03 14:00:48;;;;;;;;;;;20.00;33.70;;;;;;8329694;28;19917;-44
2023/04/03 14:04:53;;;;;;;;;;;20.00;33.60;;;;;;8332722;28;20387;-45
2023/04/03 14:08:53;;;;;;;;;;;20.00;33.70;;;;;;8336595;28;19929;-43
2023/04/03 14:12:54;;;;;;;;;;;20.00;33.70;;;;;;8336811;28;19925;-42
2023/04/03 14:16:55;;;;;;;;;;;20.00;33.90;;;;;;8336426;28;19956;-43
2023/04/03 14:20:56;;;;;;;;;;;20.00;33.70;;;;;;8335726;28;19917;-44
2023/04/03 14:24:57;;;;;;;;;;;20.00;33.70;;;;;;8336048;28;20000;-42
2023/04/03 14:28:57;;;;;;;;;;;20.00;33.60;;;;;;8335980;28;19925;-43
2023/04/03 14:32:58;;;;;;;;;;;20.00;33.70;;;;;;8335677;28;19913;-43
2023/04/03 14:36:59;;;;;;;;;;;20.00;33.60;;;;;;8335536;28;20414;-44
2023/04/03 14:40:59;;;;;;;;;;;20.00;33.50;;;;;;8335686;28;19998;-44
2023/04/03 14:45:00;;;;;;;;;;;20.00;33.60;;;;;;8317233;28;19917;-44
2023/04/03 14:49:01;;;;;;;;;;;19.90;33.60;;;;;;8335133;28;19933;-45
2023/04/03 14:53:02;;;;;;;;;;;19.90;33.60;;;;;;8335433;28;19920;-44
2023/04/03 14:57:02;;;;;;;;;;;20.00;33.70;;;;;;8335025;28;19917;-44
2023/04/03 15:01:03;;;;;;;;;;;20.00;33.70;;;;;;8334864;28;19921;-44
2023/04/03 15:05:04;;;;;;;;;;;20.00;33.60;;;;;;8335004;28;19921;-44
2023/04/03 15:09:05;;;;;;;;;;;20.00;33.50;;;;;;8334078;28;19932;-44
2023/04/03 15:13:06;;;;;;;;;;;20.00;33.50;;;;;;8335226;28;19917;-44
2023/04/03 15:17:12;;;;;;;;;;;20.10;33.60;;;;;;8334343;28;20366;-44
2023/04/03 15:21:13;;;;;;;;;;;20.20;33.50;;;;;;8334137;28;20390;-45
2023/04/03 15:25:14;;;;;;;;;;;20.30;33.50;;;;;;8334272;28;20004;-43
2023/04/03 15:29:15;;;;;;;;;;;20.40;33.50;;;;;;8333515;28;19933;-43
2023/04/03 15:33:15;;;;;;;;;;;20.50;33.40;;;;;;8334225;28;19917;-44
2023/04/03 15:37:16;;;;;;;;;;;20.50;33.30;;;;;;8333882;28;20008;-45
2023/04/03 15:41:16;;;;;;;;;;;20.50;33.20;;;;;;8333206;28;19923;-45
2023/04/03 15:45:16;;;;;;;;;;;20.60;33.30;;;;;;8333520;28;19921;-44
2023/04/03 15:49:21;;;;;;;;;;;20.70;33.30;;;;;;8333226;28;20004;-45
2023/04/03 15:53:21;;;;;;;;;;;20.70;33.30;;;;;;8333515;28;19917;-45
2023/04/03 15:57:25;;;;;;;;;;;20.70;33.20;;;;;;8333356;28;20046;-45
2023/04/03 16:01:26;;;;;;;;;;;20.80;33.30;;;;;;8332833;28;19917;-46
2023/04/03 16:05:26;;;;;;;;;;;20.70;33.20;;;;;;8332246;28;19917;-44
2023/04/03 16:09:27;;;;;;;;;;;20.70;33.20;;;;;;8332590;28;19979;-46
2023/04/03 16:13:27;;;;;;;;;;;20.80;33.10;;;;;;8332739;28;20333;-46
2023/04/03 16:17:28;;;;;;;;;;;20.70;33.10;;;;;;8331910;28;20325;-45
2023/04/03 16:21:29;;;;;;;;;;;20.70;33.20;;;;;;8332379;28;19971;-46
2023/04/03 16:25:30;;;;;;;;;;;20.70;33.20;;;;;;8331771;28;19921;-43
2023/04/03 16:29:31;;;;;;;;;;;20.70;33.30;;;;;;8330607;28;19970;-46
2023/04/03 16:33:31;;;;;;;;;;;20.60;33.30;;;;;;8332032;28;19913;-45
2023/04/03 16:37:32;;;;;;;;;;;20.60;33.30;;;;;;8331593;28;19961;-45
2023/04/03 16:41:32;;;;;;;;;;;20.50;33.10;;;;;;8331151;28;19925;-45
2023/04/03 16:45:32;;;;;;;;;;;20.50;33.10;;;;;;8331340;28;19917;-44
2023/04/03 16:49:33;;;;;;;;;;;20.50;33.20;;;;;;8331671;28;19984;-45
2023/04/03 16:53:35;;;;;;;;;;;20.50;33.10;;;;;;8330674;28;20447;-44
2023/04/03 16:57:36;;;;;;;;;;;20.50;33.00;;;;;;8331041;28;19917;-45
2023/04/03 17:01:36;;;;;;;;;;;20.50;32.90;;;;;;8331111;28;20504;-45
2023/04/03 17:05:36;;;;;;;;;;;20.50;32.90;;;;;;8330061;28;20055;-45
2023/04/03 17:09:37;;;;;;;;;;;20.50;33.00;;;;;;8330342;28;19925;-46
2023/04/03 17:13:38;;;;;;;;;;;20.50;33.10;;;;;;8330928;28;20363;-47
2023/04/03 17:17:38;;;;;;;;;;;20.50;33.20;;;;;;8329817;28;19918;-44
2023/04/03 17:21:39;;;;;;;;;;;20.50;33.20;;;;;;8330410;28;19921;-45
2023/04/03 17:25:39;;;;;;;;;;;20.50;33.10;;;;;;8330136;28;20401;-45
2023/04/03 17:29:40;;;;;;;;;;;20.50;33.00;;;;;;8349691;28;19929;-45
2023/04/03 17:33:40;;;;;;;;;;;20.60;33.00;;;;;;8330388;28;19917;-44
2023/04/03 17:37:41;;;;;;;;;;;20.60;33.00;;;;;;8330170;28;19920;-45
2023/04/03 17:41:41;;;;;;;;;;;20.70;33.00;;;;;;8329643;28;20023;-46
2023/04/03 17:45:42;;;;;;;;;;;20.70;32.90;;;;;;8330104;28;19936;-45
2023/04/03 17:49:42;;;;;;;;;;;20.70;32.80;;;;;;8329745;28;20345;-45
2023/04/03 17:53:46;;;;;;;;;;;20.70;32.90;;;;;;8329664;28;19920;-45
2023/04/03 17:57:46;;;;;;;;;;;20.70;33.00;;;;;;8329789;28;19996;-45
2023/04/03 18:01:46;;;;;;;;;;;20.70;32.90;;;;;;8329732;28;19921;-46
2023/04/03 18:05:49;;;;;;;;;;;20.70;33.00;;;;;;8328757;28;20019;-44
2023/04/03 18:09:51;;;;;;;;;;;20.60;33.00;;;;;;8329413;28;19925;-44
2023/04/03 18:13:52;;;;;;;;;;;20.60;32.90;;;;;;8329513;28;19917;-44
2023/04/03 18:17:55;;;;;;;;;;;20.60;32.80;;;;;;8328859;28;19917;-44
2023/04/03 18:21:58;;;;;;;;;;;20.60;32.70;;;;;;8329713;28;19996;-46
2023/04/03 18:26:00;;;;;;;;;;;20.60;32.80;;;;;;8329603;28;19917;-45
2023/04/03 18:30:05;;;;;;;;;;;20.50;32.70;;;;;;8328862;28;19984;-45
2023/04/03 18:34:05;;;;;;;;;;;20.50;32.50;;;;;;8330216;28;19917;-45
2023/04/03 18:38:06;;;;;;;;;;;20.50;32.70;;;;;;8329509;28;20401;-45
2023/04/03 18:42:11;;;;;;;;;;;20.50;32.70;;;;;;8328986;28;19957;-44
2023/04/03 18:46:11;;;;;;;;;;;20.50;32.70;;;;;;8329182;28;19985;-45
2023/04/03 18:50:12;;;;;;;;;;;20.40;32.70;;;;;;8330921;28;19925;-45
2023/04/03 18:54:13;;;;;;;;;;;20.40;32.80;;;;;;8334987;28;19914;-46
2023/04/03 18:58:13;;;;;;;;;;;20.40;32.80;;;;;;8335258;28;20382;-44
2023/04/03 19:02:14;;;;;;;;;;;20.50;33.00;;;;;;8334319;28;19928;-42
2023/04/03 19:06:15;;;;;;;;;;;20.50;33.10;;;;;;8334821;28;20397;-44
2023/04/03 19:10:16;;;;;;;;;;;20.60;32.90;;;;;;8333844;28;19933;-43
2023/04/03 19:14:16;;;;;;;;;;;20.60;32.70;;;;;;8334115;28;20342;-44
2023/04/03 19:18:17;;;;;;;;;;;20.70;32.70;;;;;;8334539;28;19963;-44
2023/04/03 19:22:17;;;;;;;;;;;20.70;32.70;;;;;;8334425;28;19917;-44
2023/04/03 19:26:18;;;;;;;;;;;20.70;32.60;;;;;;8333928;28;19968;-45
2023/04/03 19:30:19;;;;;;;;;;;20.70;33.10;;;;;;8334631;28;19953;-43
2023/04/03 19:34:19;;;;;;;;;;;20.70;32.60;;;;;;8334244;28;19921;-45
2023/04/03 19:38:20;;;;;;;;;;;20.70;32.80;;;;;;8333523;28;19921;-45
2023/04/03 19:42:20;;;;;;;;;;;20.60;32.80;;;;;;8333718;28;19924;-43
2023/04/03 19:46:22;;;;;;;;;;;20.60;32.70;;;;;;8333897;28;19924;-45
2023/04/03 19:50:22;;;;;;;;;;;20.60;32.70;;;;;;8332783;28;19925;-44
2023/04/03 19:54:23;;;;;;;;;;;20.60;32.60;;;;;;8333621;28;19920;-45
2023/04/03 19:58:26;;;;;;;;;;;20.50;32.50;;;;;;8333825;28;19923;-45
2023/04/03 20:02:26;;;;;;;;;;;20.50;32.40;;;;;;8332818;28;19921;-44
2023/04/03 20:06:27;;;;;;;;;;;20.50;32.50;;;;;;8332874;28;19935;-45
2023/04/03 20:10:27;;;;;;;;;;;20.50;32.50;;;;;;8332996;28;20294;-45
2023/04/03 20:14:28;;;;;;;;;;;20.50;32.50;;;;;;8332525;28;20433;-44
2023/04/03 20:18:29;;;;;;;;;;;20.50;32.40;;;;;;8332802;28;19916;-43
2023/04/03 20:22:31;;;;;;;;;;;20.40;32.40;;;;;;8332579;28;19936;-43
2023/04/03 20:26:32;;;;;;;;;;;20.40;32.50;;;;;;8331979;28;20272;-44
2023/04/03 20:30:32;;;;;;;;;;;20.40;32.40;;;;;;8332548;28;19943;-44
2023/04/03 20:34:33;;;;;;;;;;;20.40;32.40;;;;;;8332699;28;19913;-44
2023/04/03 20:38:34;;;;;;;;;;;20.40;32.40;;;;;;8331707;28;20271;-44
2023/04/03 20:42:34;;;;;;;;;;;20.40;32.40;;;;;;8332645;28;20003;-44
2023/04/03 20:46:34;;;;;;;;;;;20.40;32.40;;;;;;8331634;28;19917;-44
2023/04/03 20:50:35;;;;;;;;;;;20.40;32.40;;;;;;8331612;28;19921;-45
2023/04/03 20:54:36;;;;;;;;;;;20.40;32.30;;;;;;8331838;28;19918;-43
2023/04/03 20:58:40;;;;;;;;;;;20.40;32.30;;;;;;8331559;28;19932;-44
2023/04/03 21:02:40;;;;;;;;;;;20.40;32.30;;;;;;8331099;28;19921;-46
2023/04/03 21:07:01;;;;;;;;;;;20.40;32.20;;;;;;8331192;28;19949;-44
2023/04/03 21:11:25;;;;;;;;;;;20.40;32.10;;;;;;8331118;28;20012;-43
2023/04/03 21:15:44;;;;;;;;;;;20.40;32.00;;;;;;8330739;28;19923;-45
2023/04/03 21:19:47;;;;;;;;;;;20.40;32.00;;;;;;8330216;28;21299;-43
2023/04/03 21:23:48;;;;;;;;;;;20.40;32.20;;;;;;8330144;28;19917;-44
2023/04/03 21:27:48;;;;;;;;;;;20.30;32.10;;;;;;8331161;28;20036;-44
2023/04/03 21:31:56;;;;;;;;;;;20.30;32.30;;;;;;8330495;28;19913;-43
2023/04/03 21:35:57;;;;;;;;;;;20.30;32.40;;;;;;8330042;28;19924;-44
2023/04/03 21:39:58;;;;;;;;;;;20.30;32.40;;;;;;8330902;28;19917;-43
2023/04/03 21:43:58;;;;;;;;;;;20.30;32.40;;;;;;8330214;28;19917;-43
2023/04/03 21:47:59;;;;;;;;;;;20.20;32.30;;;;;;8329791;28;20302;-43
2023/04/03 21:52:00;;;;;;;;;;;20.20;32.50;;;;;;8330334;28;20397;-44
2023/04/03 21:56:01;;;;;;;;;;;20.20;32.50;;;;;;8330278;28;19922;-43
2023/04/03 22:00:03;;;;;;;;;;;20.10;32.50;;;;;;8329295;28;19921;-43
2023/04/03 22:04:03;;;;;;;;;;;20.10;32.60;;;;;;8321986;28;19928;-43
2023/04/03 22:08:06;;;;;;;;;;;20.10;32.60;;;;;;8313342;28;20387;-44
2023/04/03 22:12:07;;;;;;;;;;;20.00;32.50;;;;;;8329217;28;19924;-43
2023/04/03 22:16:08;;;;;;;;;;;20.00;32.60;;;;;;8330263;28;19913;-43
2023/04/03 22:20:09;;;;;;;;;;;20.00;32.60;;;;;;8329738;28;19918;-44
2023/04/03 22:24:10;;;;;;;;;;;20.00;32.50;;;;;;8329593;28;19950;-43
2023/04/03 22:28:11;;;;;;;;;;;20.00;32.60;;;;;;8336237;28;19925;-43
2023/04/03 22:32:11;;;;;;;;;;;20.00;32.60;;;;;;8336108;28;20286;-43
2023/04/03 22:36:12;;;;;;;;;;;19.90;32.60;;;;;;8335578;28;19914;-43
2023/04/03 22:40:13;;;;;;;;;;;19.90;32.50;;;;;;8335647;28;19917;-43
2023/04/03 22:44:13;;;;;;;;;;;19.90;32.50;;;;;;8335796;28;20047;-43
2023/04/03 22:48:14;;;;;;;;;;;19.90;32.50;;;;;;8335225;28;19926;-43
2023/04/03 22:52:14;;;;;;;;;;;19.90;32.60;;;;;;8335595;28;20004;-44
2023/04/03 22:56:15;;;;;;;;;;;19.80;32.50;;;;;;8335078;28;19992;-43
2023/04/03 23:00:15;;;;;;;;;;;19.80;32.50;;;;;;8335049;28;19918;-44
2023/04/03 23:04:16;;;;;;;;;;;19.80;32.40;;;;;;8335275;28;20293;-43
2023/04/03 23:08:17;;;;;;;;;;;19.80;32.50;;;;;;8334514;28;19951;-43
2023/04/03 23:12:18;;;;;;;;;;;19.80;32.40;;;;;;8334793;28;19917;-44
2023/04/03 23:16:18;;;;;;;;;;;19.70;32.90;;;;;;8334963;28;19914;-43
2023/04/03 23:20:19;;;;;;;;;;;19.70;32.30;;;;;;8334091;28;19924;-43
2023/04/03 23:24:19;;;;;;;;;;;19.70;32.50;;;;;;8334317;28;19917;-44
2023/04/03 23:28:20;;;;;;;;;;;19.70;32.30;;;;;;8334999;28;19936;-43